createdAt,value
2018-11-29T00:00:53.431Z,37.67
2018-11-29T00:03:22.131Z,35.50
2018-11-29T00:05:54.893Z,38.75
2018-11-29T00:08:24.292Z,36.65
2018-11-29T00:10:53.404Z,36.23
2018-11-29T00:13:21.800Z,38.13
2018-11-29T00:15:50.186Z,37.40
2018-11-29T00:18:19.228Z,36.68
2018-11-29T00:20:48.761Z,42.48
2018-11-29T00:23:18.241Z,35.15
2018-11-29T00:25:47.775Z,36.85
2018-11-29T00:28:17.689Z,39.27
2018-11-29T00:30:46.956Z,34.38
2018-11-29T00:33:16.919Z,39.70
2018-11-29T00:35:52.289Z,44.08
2018-11-29T00:38:52.203Z,34.92
2018-11-29T00:48:02.571Z,43.40
2018-11-29T00:50:57.024Z,36.90
2018-11-29T00:53:34.236Z,42.58
2018-11-29T00:56:17.070Z,36.63
2018-11-29T00:58:48.873Z,40.40
2018-11-29T01:01:26.810Z,38.40
2018-11-29T01:04:11.699Z,41.98
2018-11-29T01:06:40.362Z,41.92
2018-11-29T01:09:11.908Z,40.30
2018-11-29T01:11:41.483Z,45.35
2018-11-29T01:14:13.118Z,35.48
2018-11-29T01:17:25.758Z,42.03
2018-11-29T01:33:34.631Z,36.60
2018-11-29T01:36:04.114Z,47.70
2018-11-29T01:38:32.766Z,43.98
2018-11-29T01:41:03.354Z,44.48
2018-11-29T01:43:35.662Z,43.38
2018-11-29T01:46:04.722Z,47.85
2018-11-29T01:48:35.711Z,40.28
2018-11-29T01:51:05.692Z,46.20
2018-11-29T01:53:35.835Z,43.65
2018-11-29T01:56:08.770Z,41.58
2018-11-29T01:58:37.754Z,48.50
2018-11-29T02:01:10.776Z,39.20
2018-11-29T02:03:43.605Z,38.50
2018-11-29T02:06:15.566Z,42.08
2018-11-29T02:09:01.532Z,40.50
2018-11-29T02:11:52.553Z,37.95
2018-11-29T02:14:28.579Z,42.50
2018-11-29T02:17:07.101Z,41.40
2018-11-29T02:19:38.477Z,47.48
2018-11-29T02:28:29.627Z,40.50
2018-11-29T02:31:03.449Z,39.25
2018-11-29T02:33:32.281Z,40.60
2018-11-29T02:36:02.225Z,44.08
2018-11-29T02:38:32.268Z,45.65
2018-11-29T02:41:12.095Z,43.85
2018-11-29T02:43:49.142Z,45.35
2018-11-29T02:46:17.835Z,42.15
2018-11-29T02:48:57.485Z,50.17
2018-11-29T02:51:33.155Z,45.95
2018-11-29T02:54:06.894Z,43.15
2018-11-29T02:56:43.743Z,39.90
2018-11-29T02:59:13.248Z,42.45
2018-11-29T03:01:45.676Z,43.17
2018-11-29T03:04:19.887Z,37.65
2018-11-29T03:06:58.789Z,48.30
2018-11-29T03:09:56.424Z,41.53
2018-11-29T03:12:50.146Z,43.83
2018-11-29T03:15:26.022Z,48.25
2018-11-29T03:18:22.040Z,48.35
2018-11-29T03:20:51.818Z,51.28
2018-11-29T03:23:24.951Z,51.10
2018-11-29T03:25:54.120Z,53.05
2018-11-29T03:28:25.739Z,52.00
2018-11-29T03:31:14.556Z,47.25
2018-11-29T03:34:21.505Z,52.25
2018-11-29T03:37:11.704Z,50.67
2018-11-29T03:40:01.115Z,54.13
2018-11-29T03:42:50.226Z,53.70
2018-11-29T03:45:28.986Z,49.55
2018-11-29T03:48:36.357Z,50.12
2018-11-29T03:51:16.052Z,44.67
2018-11-29T03:54:09.090Z,50.73
2018-11-29T03:57:30.480Z,50.38
2018-11-29T04:03:44.884Z,49.55
2018-11-29T04:06:27.464Z,45.03
2018-11-29T04:09:14.403Z,45.48
2018-11-29T04:14:59.642Z,46.48
2018-11-29T04:21:18.890Z,48.78
2018-11-29T04:23:55.634Z,53.23
2018-11-29T04:26:35.272Z,54.83
2018-11-29T04:29:14.236Z,51.70
2018-11-29T04:31:46.476Z,58.13
2018-11-29T04:34:20.546Z,48.95
2018-11-29T04:36:54.218Z,53.80
2018-11-29T04:39:23.327Z,48.23
2018-11-29T04:41:52.668Z,52.27
2018-11-29T04:44:22.436Z,52.35
2018-11-29T04:46:52.617Z,52.65
2018-11-29T04:49:27.774Z,52.35
2018-11-29T04:52:01.514Z,53.15
2018-11-29T04:54:29.881Z,49.05
2018-11-29T04:56:58.013Z,56.77
2018-11-29T04:59:26.159Z,52.13
2018-11-29T05:01:54.449Z,57.85
2018-11-29T05:04:22.629Z,55.40
2018-11-29T05:06:50.838Z,57.70
2018-11-29T05:09:19.254Z,65.25
2018-11-29T05:11:47.474Z,58.87
2018-11-29T05:14:15.721Z,55.52
2018-11-29T05:16:43.905Z,64.47
2018-11-29T05:19:12.111Z,64.80
2018-11-29T05:21:40.375Z,67.10
2018-11-29T05:24:08.587Z,65.22
2018-11-29T05:26:36.870Z,55.10
2018-11-29T05:29:05.264Z,67.70
2018-11-29T05:31:33.542Z,55.17
2018-11-29T05:34:03.700Z,63.68
2018-11-29T05:36:34.511Z,67.20
2018-11-29T05:39:03.061Z,58.65
2018-11-29T05:41:31.341Z,71.05
2018-11-29T05:44:02.387Z,59.03
2018-11-29T05:46:30.624Z,74.95
2018-11-29T05:48:58.860Z,65.10
2018-11-29T05:51:27.035Z,61.10
2018-11-29T05:53:55.235Z,65.25
2018-11-29T05:56:23.447Z,72.72
2018-11-29T05:58:51.651Z,67.47
2018-11-29T06:01:24.655Z,65.85
2018-11-29T06:03:53.538Z,65.45
2018-11-29T06:06:22.702Z,73.47
2018-11-29T06:08:50.999Z,67.50
2018-11-29T06:11:19.427Z,75.00
2018-11-29T06:13:47.635Z,73.55
2018-11-29T06:16:15.899Z,70.87
2018-11-29T06:18:44.107Z,76.95
2018-11-29T06:21:12.331Z,77.60
2018-11-29T06:23:40.534Z,67.95
2018-11-29T06:26:08.720Z,73.95
2018-11-29T06:28:37.171Z,63.55
2018-11-29T06:31:05.617Z,75.67
2018-11-29T06:33:34.010Z,72.30
2018-11-29T06:36:03.468Z,65.50
2018-11-29T06:38:31.765Z,82.33
2018-11-29T06:41:00.783Z,72.35
2018-11-29T06:43:29.767Z,73.78
2018-11-29T06:45:59.877Z,85.40
2018-11-29T06:48:32.346Z,81.50
2018-11-29T06:51:05.167Z,80.38
2018-11-29T06:53:39.801Z,78.72
2018-11-29T06:56:08.756Z,72.47
2018-11-29T06:58:39.977Z,84.05
2018-11-29T07:01:13.536Z,80.77
2018-11-29T07:03:44.571Z,72.60
2018-11-29T07:06:20.169Z,73.37
2018-11-29T07:08:52.254Z,76.15
2018-11-29T07:11:20.851Z,79.77
2018-11-29T07:13:58.432Z,74.85
2018-11-29T07:17:05.252Z,71.57
2018-11-29T07:20:35.001Z,75.97
2018-11-29T07:23:03.486Z,69.58
2018-11-29T07:25:35.864Z,68.90
2018-11-29T07:28:04.361Z,74.95
2018-11-29T07:30:32.610Z,76.40
2018-11-29T07:33:01.080Z,68.30
2018-11-29T07:35:30.753Z,75.95
2018-11-29T07:37:59.018Z,72.78
2018-11-29T07:40:40.105Z,78.42
2018-11-29T07:43:16.902Z,68.78
2018-11-29T07:45:45.307Z,65.20
2018-11-29T07:48:22.599Z,72.40
2018-11-29T07:56:11.969Z,65.12
2018-11-29T07:58:42.920Z,55.73
2018-11-29T08:01:11.179Z,67.92
2018-11-29T08:03:40.548Z,75.45
2018-11-29T08:06:08.759Z,68.28
2018-11-29T08:08:37.060Z,68.22
2018-11-29T08:11:05.897Z,73.83
2018-11-29T08:13:34.280Z,57.98
2018-11-29T08:16:02.758Z,71.02
2018-11-29T08:31:35.935Z,66.60
2018-11-29T08:38:24.346Z,65.78
2018-11-29T08:40:59.891Z,73.62
2018-11-29T08:43:29.737Z,70.37
2018-11-29T08:46:02.755Z,61.83
2018-11-29T08:48:31.919Z,66.05
2018-11-29T08:51:00.377Z,60.08
2018-11-29T08:53:30.209Z,62.93
2018-11-29T08:56:02.949Z,71.95
2018-11-29T08:58:45.232Z,62.08
2018-11-29T09:01:13.719Z,60.78
2018-11-29T09:03:42.819Z,57.67
2018-11-29T09:06:11.579Z,60.95
2018-11-29T09:11:22.695Z,56.73
2018-11-29T09:13:56.287Z,57.35
2018-11-29T09:17:05.552Z,61.25
2018-11-29T09:19:38.467Z,52.67
2018-11-29T09:22:09.806Z,63.08
2018-11-29T09:28:08.648Z,54.77
2018-11-29T09:36:54.592Z,55.67
2018-11-29T09:44:53.550Z,50.90
2018-11-29T09:47:58.007Z,56.75
2018-11-29T09:50:55.498Z,49.33
2018-11-29T09:56:17.541Z,56.83
2018-11-29T09:58:53.838Z,49.90
2018-11-29T10:01:29.415Z,47.00
2018-11-29T10:04:03.118Z,56.30
2018-11-29T10:26:17.909Z,50.23
2018-11-29T10:28:46.608Z,49.50
2018-11-29T10:31:16.241Z,47.45
2018-11-29T10:33:45.102Z,46.13
2018-11-29T10:36:14.841Z,52.58
2018-11-29T10:38:44.306Z,52.00
2018-11-29T10:41:19.862Z,48.75
2018-11-29T10:43:50.948Z,51.05
2018-11-29T10:46:20.282Z,44.35
2018-11-29T10:48:50.027Z,47.35
2018-11-29T10:51:23.221Z,49.10
2018-11-29T10:53:52.849Z,49.48
2018-11-29T10:56:21.663Z,52.65
2018-11-29T10:58:49.923Z,45.05
2018-11-29T11:01:23.409Z,47.95
2018-11-29T11:03:51.659Z,49.13
2018-11-29T11:06:20.000Z,45.52
2018-11-29T11:08:48.496Z,57.53
2018-11-29T11:11:25.216Z,58.92
2018-11-29T11:13:53.903Z,50.73
2018-11-29T11:16:22.347Z,47.43
2018-11-29T11:18:50.698Z,52.58
2018-11-29T11:21:19.059Z,45.63
2018-11-29T11:23:47.312Z,44.60
2018-11-29T11:26:15.573Z,44.15
2018-11-29T11:28:43.821Z,46.83
2018-11-29T11:31:12.135Z,55.48
2018-11-29T11:33:41.563Z,45.63
2018-11-29T11:36:09.981Z,46.35
2018-11-29T11:38:38.255Z,45.85
2018-11-29T11:41:06.586Z,43.25
2018-11-29T11:43:35.519Z,46.00
2018-11-29T11:46:03.839Z,46.90
2018-11-29T11:48:32.095Z,42.27
2018-11-29T11:51:00.510Z,41.35
2018-11-29T11:53:28.876Z,42.70
2018-11-29T11:55:57.232Z,40.40
2018-11-29T11:58:41.365Z,50.20
2018-11-29T12:01:10.624Z,43.98
2018-11-29T12:03:40.605Z,45.60
2018-11-29T12:06:13.025Z,44.50
2018-11-29T12:08:41.559Z,42.05
2018-11-29T12:11:10.337Z,40.10
2018-11-29T12:13:47.757Z,48.70
2018-11-29T12:16:18.888Z,47.62
2018-11-29T12:18:49.583Z,47.17
2018-11-29T12:21:18.360Z,50.88
2018-11-29T12:23:47.776Z,45.92
2018-11-29T12:26:17.500Z,44.83
2018-11-29T12:28:49.286Z,43.92
2018-11-29T12:31:18.588Z,45.45
2018-11-29T12:33:47.550Z,41.68
2018-11-29T12:36:16.561Z,43.13
2018-11-29T12:38:46.056Z,47.23
2018-11-29T12:41:14.493Z,46.37
2018-11-29T12:43:44.160Z,47.17
2018-11-29T12:46:12.493Z,48.68
2018-11-29T12:48:40.733Z,47.67
2018-11-29T12:51:09.018Z,49.88
2018-11-29T12:53:37.785Z,43.85
2018-11-29T12:56:06.194Z,48.78
2018-11-29T12:58:34.421Z,43.48
2018-11-29T13:01:02.624Z,47.43
2018-11-29T13:03:30.833Z,43.90
2018-11-29T13:05:59.056Z,49.20
2018-11-29T13:08:27.570Z,50.05
2018-11-29T13:10:56.351Z,49.13
2018-11-29T13:13:27.530Z,42.88
2018-11-29T13:15:52.940Z,42.23
2018-11-29T13:18:22.344Z,46.50
2018-11-29T13:21:00.700Z,42.55
2018-11-29T13:23:29.038Z,42.55
2018-11-29T13:25:57.256Z,39.85
2018-11-29T13:28:25.539Z,37.30
2018-11-29T13:30:56.180Z,44.25
2018-11-29T13:33:24.486Z,41.45
2018-11-29T13:35:52.879Z,45.60
2018-11-29T13:38:21.091Z,41.18
2018-11-29T13:40:51.021Z,41.58
2018-11-29T13:43:19.366Z,40.35
2018-11-29T13:45:47.614Z,39.98
2018-11-29T13:48:15.892Z,38.28
2018-11-29T13:50:44.176Z,42.80
2018-11-29T13:53:12.491Z,38.02
2018-11-29T13:55:40.849Z,35.03
2018-11-29T13:58:08.975Z,36.63
2018-11-29T14:00:37.302Z,39.53
2018-11-29T14:03:08.271Z,36.33
2018-11-29T14:05:36.996Z,33.88
2018-11-29T14:08:06.191Z,39.35
2018-11-29T14:10:34.510Z,34.90
2018-11-29T14:13:02.689Z,35.33
2018-11-29T14:15:31.206Z,33.80
2018-11-29T14:17:59.566Z,35.38
2018-11-29T14:20:27.859Z,42.48
2018-11-29T14:22:55.999Z,35.80
2018-11-29T14:25:25.127Z,33.90
2018-11-29T14:27:59.699Z,37.10
2018-11-29T14:30:30.588Z,30.35
2018-11-29T14:33:00.876Z,31.25
2018-11-29T14:35:31.681Z,34.67
2018-11-29T14:37:59.958Z,35.38
2018-11-29T14:40:29.913Z,33.78
2018-11-29T14:43:17.530Z,33.50
2018-11-29T14:49:09.068Z,27.73
2018-11-29T14:54:38.437Z,29.92
2018-11-29T14:57:40.589Z,26.30
2018-11-29T15:00:10.887Z,29.00
2018-11-29T15:02:40.189Z,31.10
2018-11-29T15:05:14.889Z,26.05
2018-11-29T15:08:07.086Z,30.50
2018-11-29T15:11:01.185Z,28.23
2018-11-29T15:13:47.683Z,21.97
2018-11-29T15:28:25.312Z,27.13
2018-11-29T15:30:54.191Z,26.10
2018-11-29T15:33:26.195Z,26.65
2018-11-29T15:39:07.727Z,26.57
2018-11-29T15:41:39.702Z,30.68
2018-11-29T15:44:18.042Z,27.93
2018-11-29T15:47:05.054Z,26.90
2018-11-29T15:49:49.148Z,24.35
2018-11-29T15:52:24.810Z,25.68
2018-11-29T15:54:53.436Z,28.85
2018-11-29T15:57:22.653Z,22.20
2018-11-29T15:59:50.862Z,28.17
2018-11-29T16:02:19.568Z,23.50
2018-11-29T16:04:48.182Z,21.15
2018-11-29T16:07:17.004Z,24.60
2018-11-29T16:09:48.137Z,26.57
2018-11-29T16:12:18.459Z,24.27
2018-11-29T16:14:47.352Z,20.85
2018-11-29T16:17:15.686Z,20.57
2018-11-29T16:19:43.942Z,23.42
2018-11-29T16:22:12.209Z,21.45
2018-11-29T16:24:40.601Z,24.30
2018-11-29T16:27:09.039Z,22.20
2018-11-29T16:29:37.532Z,22.17
2018-11-29T16:32:07.330Z,20.65
2018-11-29T16:34:35.810Z,22.70
2018-11-29T16:37:04.703Z,23.40
2018-11-29T16:39:33.239Z,23.52
2018-11-29T16:42:01.836Z,24.65
2018-11-29T16:44:32.569Z,22.25
2018-11-29T16:47:01.711Z,19.67
2018-11-29T16:49:30.892Z,25.02
2018-11-29T16:52:00.089Z,22.22
2018-11-29T16:54:29.525Z,23.30
2018-11-29T16:56:58.225Z,24.57
2018-11-29T16:59:27.019Z,21.20
2018-11-29T17:01:56.389Z,20.37
2018-11-29T17:04:24.887Z,21.55
2018-11-29T17:06:53.574Z,21.68
2018-11-29T17:09:23.660Z,20.12
2018-11-29T17:11:52.004Z,23.80
2018-11-29T17:14:20.617Z,21.05
2018-11-29T17:16:50.520Z,22.35
2018-11-29T17:19:19.464Z,16.67
2018-11-29T17:21:47.926Z,20.90
2018-11-29T17:24:17.648Z,19.17
2018-11-29T17:26:46.409Z,22.40
2018-11-29T17:29:14.818Z,21.45
2018-11-29T17:31:44.069Z,20.35
2018-11-29T17:34:12.760Z,25.23
2018-11-29T17:36:41.344Z,21.37
2018-11-29T17:39:09.940Z,18.10
2018-11-29T17:41:38.387Z,17.62
2018-11-29T17:44:07.184Z,21.33
2018-11-29T17:46:35.601Z,17.65
2018-11-29T17:49:04.119Z,18.57
2018-11-29T17:51:32.742Z,18.65
2018-11-29T17:54:01.232Z,21.73
2018-11-29T17:56:30.638Z,21.02
2018-11-29T17:59:02.869Z,20.23
2018-11-29T18:01:31.136Z,18.62
2018-11-29T18:04:04.453Z,20.02
2018-11-29T18:09:54.509Z,19.85
2018-11-29T18:12:23.804Z,21.07
2018-11-29T18:15:07.223Z,19.00
2018-11-29T18:17:38.012Z,17.65
2018-11-29T18:20:13.595Z,17.70
2018-11-29T18:23:16.592Z,18.75
2018-11-29T18:25:46.030Z,20.77
2018-11-29T18:28:18.217Z,20.62
2018-11-29T18:30:47.955Z,19.75
2018-11-29T18:33:16.475Z,19.92
2018-11-29T18:35:51.901Z,19.02
2018-11-29T18:38:20.514Z,19.55
2018-11-29T18:40:50.408Z,16.95
2018-11-29T18:43:19.597Z,22.05
2018-11-29T18:45:50.528Z,16.15
2018-11-29T18:48:18.842Z,18.70
2018-11-29T18:50:47.142Z,17.55
2018-11-29T18:53:15.437Z,20.57
2018-11-29T18:55:43.841Z,18.37
2018-11-29T18:58:13.019Z,15.95
2018-11-29T19:00:41.622Z,17.70
2018-11-29T19:03:10.112Z,19.27
2018-11-29T19:05:38.602Z,17.77
2018-11-29T19:08:09.808Z,14.35
2018-11-29T19:10:38.207Z,16.37
2018-11-29T19:13:08.909Z,20.62
2018-11-29T19:15:37.482Z,18.70
2018-11-29T19:18:10.640Z,20.37
2018-11-29T19:20:50.898Z,17.95
2018-11-29T19:23:23.137Z,17.73
2018-11-29T19:25:52.132Z,19.17
2018-11-29T19:28:21.399Z,15.60
2018-11-29T19:30:50.436Z,19.20
2018-11-29T19:33:20.331Z,21.27
2018-11-29T19:35:50.751Z,20.52
2018-11-29T19:38:22.093Z,18.32
2018-11-29T19:41:00.167Z,14.83
2018-11-29T19:43:37.502Z,17.90
2018-11-29T19:46:08.482Z,17.92
2018-11-29T19:48:46.579Z,18.35
2018-11-29T19:51:45.425Z,16.00
2018-11-29T19:56:54.237Z,16.75
2018-11-29T19:59:24.073Z,17.45
2018-11-29T20:01:55.606Z,18.73
2018-11-29T20:04:39.252Z,17.92
2018-11-29T20:10:07.305Z,16.10
2018-11-29T20:12:36.210Z,13.70
2018-11-29T20:15:09.267Z,17.75
2018-11-29T20:17:37.988Z,12.85
2018-11-29T20:20:08.932Z,14.40
2018-11-29T20:22:46.699Z,17.70
2018-11-29T20:25:26.045Z,15.25
2018-11-29T20:27:55.378Z,17.30
2018-11-29T20:30:30.997Z,14.25
2018-11-29T20:33:12.011Z,19.52
2018-11-29T20:35:43.243Z,18.85
2018-11-29T20:38:12.501Z,12.40
2018-11-29T20:40:45.094Z,11.83
2018-11-29T20:43:13.986Z,15.85
2018-11-29T20:45:49.352Z,15.83
2018-11-29T20:48:19.172Z,14.07
2018-11-29T20:59:48.995Z,15.65
2018-11-29T22:41:03.954Z,15.95
2018-11-29T22:43:32.330Z,15.18
2018-11-29T22:46:00.658Z,12.58
2018-11-29T22:48:28.921Z,12.78
2018-11-29T22:50:57.690Z,12.80
2018-11-29T22:53:25.984Z,11.10
2018-11-29T22:55:54.372Z,11.65
2018-11-29T22:58:22.763Z,14.20
2018-11-29T23:00:52.219Z,12.98
2018-11-29T23:03:21.296Z,10.68
2018-11-29T23:09:14.983Z,10.60
2018-11-29T23:19:56.674Z,9.78
2018-11-29T23:26:27.322Z,10.08
2018-11-29T23:29:22.046Z,10.00
